sensor_id;sensor_type;location;lat;lon;timestamp;pressure;altitude;pressure_sealevel;temperature;humidity
75298;BME280;63896;45.990;18.688;2024-03-23T00:55:10;100537.88;;;6.38;100.00
75298;BME280;63896;45.990;18.688;2024-03-23T00:58:11;100538.09;;;6.37;100.00
75298;BME280;63896;45.990;18.688;2024-03-23T01:01:13;100536.63;;;6.34;100.00
75298;BME280;63896;45.990;18.688;2024-03-23T01:04:15;100521.19;;;6.31;100.00
75298;BME280;63896;45.990;18.688;2024-03-23T01:07:17;100528.63;;;6.28;100.00
75298;BME280;63896;45.990;18.688;2024-03-23T01:10:19;100525.56;;;6.24;100.00
75298;BME280;63896;45.990;18.688;2024-03-23T01:13:20;100524.09;;;6.21;100.00
75298;BME280;63896;45.990;18.688;2024-03-23T01:16:23;100520.19;;;6.17;100.00
75298;BME280;63896;45.990;18.688;2024-03-23T01:19:25;100528.44;;;6.14;100.00
75298;BME280;63896;45.990;18.688;2024-03-23T01:22:27;100522.72;;;6.11;100.00
75298;BME280;63896;45.990;18.688;2024-03-23T01:25:29;100525.56;;;6.09;100.00
75298;BME280;63896;45.990;18.688;2024-03-23T01:28:30;100519.84;;;6.06;100.00
75298;BME280;63896;45.990;18.688;2024-03-23T01:31:32;100522.47;;;6.06;100.00
75298;BME280;63896;45.990;18.688;2024-03-23T01:34:34;100515.72;;;6.03;100.00
75298;BME280;63896;45.990;18.688;2024-03-23T01:37:36;100516.09;;;6.00;100.00
75298;BME280;63896;45.990;18.688;2024-03-23T01:40:37;100513.84;;;5.97;100.00
75298;BME280;63896;45.990;18.688;2024-03-23T01:43:39;100518.91;;;5.99;100.00
75298;BME280;63896;45.990;18.688;2024-03-23T01:46:42;100511.81;;;5.99;100.00
75298;BME280;63896;45.990;18.688;2024-03-23T01:49:44;100520.09;;;5.96;100.00
75298;BME280;63896;45.990;18.688;2024-03-23T01:52:46;100508.56;;;5.97;100.00
75298;BME280;63896;45.990;18.688;2024-03-23T01:55:50;100510.75;;;5.94;100.00
75298;BME280;63896;45.990;18.688;2024-03-23T01:58:52;100512.72;;;5.92;100.00
75298;BME280;63896;45.990;18.688;2024-03-23T02:01:54;100509.94;;;5.93;100.00
75298;BME280;63896;45.990;18.688;2024-03-23T02:04:57;100511.13;;;5.91;100.00
75298;BME280;63896;45.990;18.688;2024-03-23T02:07:59;100507.28;;;5.93;100.00
75298;BME280;63896;45.990;18.688;2024-03-23T02:11:01;100509.47;;;5.90;100.00
75298;BME280;63896;45.990;18.688;2024-03-23T02:14:02;100500.09;;;5.87;100.00
75298;BME280;63896;45.990;18.688;2024-03-23T02:17:04;100500.91;;;5.88;100.00
75298;BME280;63896;45.990;18.688;2024-03-23T02:20:06;100496.69;;;5.87;100.00
75298;BME280;63896;45.990;18.688;2024-03-23T02:23:15;100496.81;;;5.85;100.00
75298;BME280;63896;45.990;18.688;2024-03-23T02:26:17;100493.38;;;5.85;100.00
75298;BME280;63896;45.990;18.688;2024-03-23T02:29:19;100483.19;;;5.82;100.00
75298;BME280;63896;45.990;18.688;2024-03-23T02:32:22;100481.56;;;5.81;100.00
75298;BME280;63896;45.990;18.688;2024-03-23T02:35:24;100481.09;;;5.77;100.00
75298;BME280;63896;45.990;18.688;2024-03-23T02:38:25;100473.56;;;5.74;100.00
75298;BME280;63896;45.990;18.688;2024-03-23T02:41:27;100471.75;;;5.74;100.00
75298;BME280;63896;45.990;18.688;2024-03-23T02:44:29;100472.91;;;5.72;100.00
75298;BME280;63896;45.990;18.688;2024-03-23T02:47:31;100464.56;;;5.68;100.00
75298;BME280;63896;45.990;18.688;2024-03-23T02:50:32;100467.94;;;5.62;100.00
75298;BME280;63896;45.990;18.688;2024-03-23T02:53:35;100461.84;;;5.62;100.00
75298;BME280;63896;45.990;18.688;2024-03-23T02:56:36;100463.03;;;5.59;100.00
75298;BME280;63896;45.990;18.688;2024-03-23T02:59:38;100452.50;;;5.59;100.00
75298;BME280;63896;45.990;18.688;2024-03-23T03:02:40;100449.75;;;5.53;100.00
75298;BME280;63896;45.990;18.688;2024-03-23T03:05:42;100448.47;;;5.49;100.00
75298;BME280;63896;45.990;18.688;2024-03-23T03:08:44;100439.81;;;5.48;100.00
75298;BME280;63896;45.990;18.688;2024-03-23T03:11:45;100439.59;;;5.50;100.00
75298;BME280;63896;45.990;18.688;2024-03-23T03:14:47;100437.34;;;5.47;100.00
75298;BME280;63896;45.990;18.688;2024-03-23T03:17:49;100443.78;;;5.44;100.00
75298;BME280;63896;45.990;18.688;2024-03-23T03:20:54;100446.28;;;5.38;100.00
75298;BME280;63896;45.990;18.688;2024-03-23T03:23:56;100444.03;;;5.35;100.00
75298;BME280;63896;45.990;18.688;2024-03-23T03:26:58;100441.75;;;5.32;100.00
75298;BME280;63896;45.990;18.688;2024-03-23T03:30:00;100441.09;;;5.29;100.00
75298;BME280;63896;45.990;18.688;2024-03-23T03:33:03;100439.03;;;5.25;100.00
75298;BME280;63896;45.990;18.688;2024-03-23T03:36:05;100439.19;;;5.23;100.00
75298;BME280;63896;45.990;18.688;2024-03-23T03:39:07;100436.94;;;5.20;100.00
75298;BME280;63896;45.990;18.688;2024-03-23T03:42:09;100439.13;;;5.32;100.00
75298;BME280;63896;45.990;18.688;2024-03-23T03:45:11;100439.28;;;5.30;100.00
75298;BME280;63896;45.990;18.688;2024-03-23T03:48:12;100441.94;;;5.30;100.00
75298;BME280;63896;45.990;18.688;2024-03-23T03:51:14;100429.22;;;5.34;100.00
75298;BME280;63896;45.990;18.688;2024-03-23T03:54:16;100429.44;;;5.32;100.00
75298;BME280;63896;45.990;18.688;2024-03-23T03:57:18;100431.16;;;5.25;100.00
75298;BME280;63896;45.990;18.688;2024-03-23T04:00:20;100412.44;;;5.20;100.00
75298;BME280;63896;45.990;18.688;2024-03-23T04:03:22;100416.59;;;5.14;100.00
75298;BME280;63896;45.990;18.688;2024-03-23T04:06:24;100414.78;;;5.15;100.00
75298;BME280;63896;45.990;18.688;2024-03-23T04:09:25;100421.41;;;5.11;100.00
75298;BME280;63896;45.990;18.688;2024-03-23T04:12:27;100415.16;;;5.12;100.00
75298;BME280;63896;45.990;18.688;2024-03-23T04:15:29;100413.50;;;5.11;100.00
75298;BME280;63896;45.990;18.688;2024-03-23T04:18:31;100414.31;;;5.11;100.00
75298;BME280;63896;45.990;18.688;2024-03-23T04:21:33;100417.31;;;5.08;100.00
75298;BME280;63896;45.990;18.688;2024-03-23T04:24:35;100415.88;;;5.06;100.00
75298;BME280;63896;45.990;18.688;2024-03-23T04:27:37;100419.28;;;5.06;100.00
75298;BME280;63896;45.990;18.688;2024-03-23T04:30:39;100417.31;;;5.08;100.00
75298;BME280;63896;45.990;18.688;2024-03-23T04:33:41;100422.56;;;5.08;100.00
75298;BME280;63896;45.990;18.688;2024-03-23T04:36:42;100427.00;;;5.08;100.00
75298;BME280;63896;45.990;18.688;2024-03-23T04:39:44;100415.50;;;5.09;100.00
75298;BME280;63896;45.990;18.688;2024-03-23T04:42:46;100416.13;;;5.11;100.00
75298;BME280;63896;45.990;18.688;2024-03-23T04:45:47;100401.84;;;5.13;100.00
75298;BME280;63896;45.990;18.688;2024-03-23T04:48:49;100408.69;;;5.14;100.00
75298;BME280;63896;45.990;18.688;2024-03-23T04:51:51;100399.47;;;5.18;100.00
75298;BME280;63896;45.990;18.688;2024-03-23T04:54:52;100392.91;;;5.14;100.00
75298;BME280;63896;45.990;18.688;2024-03-23T04:57:54;100397.03;;;5.17;100.00
75298;BME280;63896;45.990;18.688;2024-03-23T05:00:57;100399.09;;;5.21;100.00
75298;BME280;63896;45.990;18.688;2024-03-23T05:03:58;100400.56;;;5.24;100.00
75298;BME280;63896;45.990;18.688;2024-03-23T05:07:00;100406.19;;;5.21;100.00
75298;BME280;63896;45.990;18.688;2024-03-23T05:10:02;100399.38;;;5.12;100.00
75298;BME280;63896;45.990;18.688;2024-03-23T05:13:05;100405.63;;;5.11;100.00
75298;BME280;63896;45.990;18.688;2024-03-23T05:16:07;100403.34;;;5.08;100.00
75298;BME280;63896;45.990;18.688;2024-03-23T05:19:09;100402.22;;;5.02;100.00
75298;BME280;63896;45.990;18.688;2024-03-23T05:22:11;100400.09;;;5.06;100.00
75298;BME280;63896;45.990;18.688;2024-03-23T05:25:13;100395.91;;;5.11;100.00
75298;BME280;63896;45.990;18.688;2024-03-23T05:28:15;100397.19;;;5.15;100.00
75298;BME280;63896;45.990;18.688;2024-03-23T05:31:27;100393.66;;;5.23;100.00
75298;BME280;63896;45.990;18.688;2024-03-23T05:34:32;100388.34;;;5.31;100.00
75298;BME280;63896;45.990;18.688;2024-03-23T05:37:33;100380.44;;;5.46;100.00
75298;BME280;63896;45.990;18.688;2024-03-23T05:40:35;100377.81;;;5.60;100.00
75298;BME280;63896;45.990;18.688;2024-03-23T05:43:39;100379.00;;;5.87;100.00
75298;BME280;63896;45.990;18.688;2024-03-23T05:46:41;100371.56;;;5.91;100.00
75298;BME280;63896;45.990;18.688;2024-03-23T05:49:43;100374.22;;;6.12;100.00
75298;BME280;63896;45.990;18.688;2024-03-23T05:52:45;100374.13;;;6.20;100.00
75298;BME280;63896;45.990;18.688;2024-03-23T05:55:47;100380.44;;;6.26;100.00
75298;BME280;63896;45.990;18.688;2024-03-23T05:58:51;100369.88;;;6.40;100.00
75298;BME280;63896;45.990;18.688;2024-03-23T06:01:53;100369.81;;;6.55;100.00
75298;BME280;63896;45.990;18.688;2024-03-23T06:04:55;100369.97;;;6.68;100.00
75298;BME280;63896;45.990;18.688;2024-03-23T06:07:57;100375.38;;;6.88;100.00
75298;BME280;63896;45.990;18.688;2024-03-23T06:10:59;100374.72;;;7.07;100.00
75298;BME280;63896;45.990;18.688;2024-03-23T06:14:00;100380.81;;;7.35;100.00
75298;BME280;63896;45.990;18.688;2024-03-23T06:17:02;100371.69;;;7.72;100.00
75298;BME280;63896;45.990;18.688;2024-03-23T06:20:05;100377.91;;;8.73;100.00
75298;BME280;63896;45.990;18.688;2024-03-23T06:23:07;100373.88;;;10.69;100.00
75298;BME280;63896;45.990;18.688;2024-03-23T06:26:09;100368.78;;;11.78;100.00
75298;BME280;63896;45.990;18.688;2024-03-23T06:29:11;100373.63;;;10.77;100.00
75298;BME280;63896;45.990;18.688;2024-03-23T06:32:13;100372.34;;;11.05;100.00
75298;BME280;63896;45.990;18.688;2024-03-23T06:35:15;100367.78;;;11.55;100.00
75298;BME280;63896;45.990;18.688;2024-03-23T06:38:16;100375.81;;;11.48;100.00
75298;BME280;63896;45.990;18.688;2024-03-23T06:41:19;100375.25;;;12.60;100.00
75298;BME280;63896;45.990;18.688;2024-03-23T06:44:21;100360.97;;;14.06;100.00
75298;BME280;63896;45.990;18.688;2024-03-23T06:47:23;100360.19;;;15.89;78.72
75298;BME280;63896;45.990;18.688;2024-03-23T06:50:24;100362.25;;;15.82;73.03
75298;BME280;63896;45.990;18.688;2024-03-23T06:53:26;100360.72;;;16.61;64.53
75298;BME280;63896;45.990;18.688;2024-03-23T06:56:28;100356.41;;;16.87;65.27
75298;BME280;63896;45.990;18.688;2024-03-23T06:59:30;100351.22;;;18.11;58.78
75298;BME280;63896;45.990;18.688;2024-03-23T07:02:32;100349.38;;;18.47;56.73
75298;BME280;63896;45.990;18.688;2024-03-23T07:05:33;100347.81;;;19.01;54.08
75298;BME280;63896;45.990;18.688;2024-03-23T07:08:35;100349.63;;;19.57;51.69
75298;BME280;63896;45.990;18.688;2024-03-23T07:11:37;100342.50;;;19.91;50.67
75298;BME280;63896;45.990;18.688;2024-03-23T07:14:39;100337.31;;;21.16;47.58
75298;BME280;63896;45.990;18.688;2024-03-23T07:17:41;100334.56;;;22.49;43.39
75298;BME280;63896;45.990;18.688;2024-03-23T07:20:54;100328.41;;;23.13;42.14
75298;BME280;63896;45.990;18.688;2024-03-23T07:23:56;100333.09;;;21.34;44.70
75298;BME280;63896;45.990;18.688;2024-03-23T07:26:57;100333.63;;;22.77;43.13
75298;BME280;63896;45.990;18.688;2024-03-23T07:29:59;100327.53;;;23.45;41.64
75298;BME280;63896;45.990;18.688;2024-03-23T07:33:02;100328.41;;;23.13;42.28
75298;BME280;63896;45.990;18.688;2024-03-23T07:36:04;100320.66;;;24.15;41.59
75298;BME280;63896;45.990;18.688;2024-03-23T07:39:07;100321.38;;;23.94;39.45
75298;BME280;63896;45.990;18.688;2024-03-23T07:42:09;100317.28;;;24.77;38.23
75298;BME280;63896;45.990;18.688;2024-03-23T07:45:11;100310.25;;;25.77;36.37
75298;BME280;63896;45.990;18.688;2024-03-23T07:48:13;100304.09;;;26.19;35.42
75298;BME280;63896;45.990;18.688;2024-03-23T07:51:22;100302.63;;;25.87;35.70
75298;BME280;63896;45.990;18.688;2024-03-23T07:54:24;100281.66;;;27.79;32.58
75298;BME280;63896;45.990;18.688;2024-03-23T07:57:26;100278.13;;;25.79;34.07
75298;BME280;63896;45.990;18.688;2024-03-23T08:00:28;100281.16;;;26.54;33.43
75298;BME280;63896;45.990;18.688;2024-03-23T08:03:29;100259.06;;;28.85;31.19
75298;BME280;63896;45.990;18.688;2024-03-23T08:06:31;100264.31;;;29.03;28.65
75298;BME280;63896;45.990;18.688;2024-03-23T08:09:33;100250.44;;;26.45;32.88
75298;BME280;63896;45.990;18.688;2024-03-23T08:12:35;100263.81;;;23.34;38.00
75298;BME280;63896;45.990;18.688;2024-03-23T08:15:36;100259.44;;;24.90;35.14
75298;BME280;63896;45.990;18.688;2024-03-23T08:18:39;100249.56;;;23.69;37.08
75298;BME280;63896;45.990;18.688;2024-03-23T08:21:41;100244.50;;;25.09;34.97
75298;BME280;63896;45.990;18.688;2024-03-23T08:24:43;100237.31;;;26.56;33.07
75298;BME280;63896;45.990;18.688;2024-03-23T08:27:45;100233.88;;;27.23;31.29
75298;BME280;63896;45.990;18.688;2024-03-23T08:30:47;100225.66;;;27.02;31.67
75298;BME280;63896;45.990;18.688;2024-03-23T08:33:49;100237.34;;;24.30;35.74
75298;BME280;63896;45.990;18.688;2024-03-23T08:36:51;100230.41;;;24.46;35.96
75298;BME280;63896;45.990;18.688;2024-03-23T08:39:53;100228.19;;;24.70;35.60
75298;BME280;63896;45.990;18.688;2024-03-23T08:42:55;100216.44;;;23.72;36.47
75298;BME280;63896;45.990;18.688;2024-03-23T08:46:07;100217.69;;;22.84;38.42
75298;BME280;63896;45.990;18.688;2024-03-23T08:49:09;100216.59;;;22.85;38.44
75298;BME280;63896;45.990;18.688;2024-03-23T08:52:11;100212.88;;;23.49;37.13
75298;BME280;63896;45.990;18.688;2024-03-23T08:55:13;100214.50;;;24.53;35.53
75298;BME280;63896;45.990;18.688;2024-03-23T08:58:15;100206.28;;;26.48;32.34
75298;BME280;63896;45.990;18.688;2024-03-23T09:01:19;100203.44;;;26.28;33.26
75298;BME280;63896;45.990;18.688;2024-03-23T09:04:20;100196.72;;;27.18;31.95
75298;BME280;63896;45.990;18.688;2024-03-23T09:07:23;100199.09;;;26.27;32.58
75298;BME280;63896;45.990;18.688;2024-03-23T09:10:24;100196.34;;;25.41;33.96
75298;BME280;63896;45.990;18.688;2024-03-23T09:13:26;100184.56;;;26.23;32.64
75298;BME280;63896;45.990;18.688;2024-03-23T09:16:28;100173.94;;;28.06;29.61
75298;BME280;63896;45.990;18.688;2024-03-23T09:19:30;100181.97;;;27.69;29.94
75298;BME280;63896;45.990;18.688;2024-03-23T09:22:32;100172.31;;;28.70;28.94
75298;BME280;63896;45.990;18.688;2024-03-23T09:25:40;100161.19;;;29.64;28.59
75298;BME280;63896;45.990;18.688;2024-03-23T09:28:42;100162.94;;;30.87;26.71
75298;BME280;63896;45.990;18.688;2024-03-23T09:31:44;100158.69;;;29.31;27.90
75298;BME280;63896;45.990;18.688;2024-03-23T09:34:46;100147.69;;;29.43;27.61
75298;BME280;63896;45.990;18.688;2024-03-23T09:37:48;100143.41;;;28.94;28.34
75298;BME280;63896;45.990;18.688;2024-03-23T09:40:52;100135.81;;;28.75;29.65
75298;BME280;63896;45.990;18.688;2024-03-23T09:43:54;100132.72;;;30.67;26.63
75298;BME280;63896;45.990;18.688;2024-03-23T09:46:56;100135.22;;;30.72;26.94
75298;BME280;63896;45.990;18.688;2024-03-23T09:50:00;100127.41;;;30.74;24.56
75298;BME280;63896;45.990;18.688;2024-03-23T09:53:02;100116.50;;;30.94;25.02
75298;BME280;63896;45.990;18.688;2024-03-23T09:56:04;100110.31;;;29.75;25.78
75298;BME280;63896;45.990;18.688;2024-03-23T09:59:06;100102.72;;;32.02;23.27
75298;BME280;63896;45.990;18.688;2024-03-23T10:02:08;100099.66;;;30.29;25.23
75298;BME280;63896;45.990;18.688;2024-03-23T10:05:23;100086.69;;;31.43;23.94
75298;BME280;63896;45.990;18.688;2024-03-23T10:08:25;100079.38;;;31.50;22.91
75298;BME280;63896;45.990;18.688;2024-03-23T10:11:27;100075.25;;;32.67;22.38
75298;BME280;63896;45.990;18.688;2024-03-23T10:14:30;100059.38;;;32.34;22.82
75298;BME280;63896;45.990;18.688;2024-03-23T10:17:32;100063.84;;;32.94;22.11
75298;BME280;63896;45.990;18.688;2024-03-23T10:20:34;100056.09;;;32.74;22.61
75298;BME280;63896;45.990;18.688;2024-03-23T10:23:37;100056.28;;;32.13;22.92
75298;BME280;63896;45.990;18.688;2024-03-23T10:26:39;100048.84;;;31.13;24.57
75298;BME280;63896;45.990;18.688;2024-03-23T10:29:41;100051.31;;;32.22;23.48
75298;BME280;63896;45.990;18.688;2024-03-23T10:32:43;100026.94;;;31.75;23.66
75298;BME280;63896;45.990;18.688;2024-03-23T10:35:45;100034.13;;;30.05;25.20
75298;BME280;63896;45.990;18.688;2024-03-23T10:38:50;100022.03;;;32.06;23.00
75298;BME280;63896;45.990;18.688;2024-03-23T10:41:53;100022.34;;;32.24;22.71
75298;BME280;63896;45.990;18.688;2024-03-23T10:44:58;100018.44;;;31.80;22.53
75298;BME280;63896;45.990;18.688;2024-03-23T10:48:00;100001.50;;;31.74;23.11
75298;BME280;63896;45.990;18.688;2024-03-23T10:51:02;99999.06;;;33.27;22.26
75298;BME280;63896;45.990;18.688;2024-03-23T10:54:04;99992.97;;;33.11;21.83
75298;BME280;63896;45.990;18.688;2024-03-23T10:57:11;99989.31;;;33.66;20.72
75298;BME280;63896;45.990;18.688;2024-03-23T11:00:15;99985.81;;;32.46;22.02
75298;BME280;63896;45.990;18.688;2024-03-23T11:03:34;99982.81;;;31.60;23.30
75298;BME280;63896;45.990;18.688;2024-03-23T11:06:38;99966.59;;;32.76;21.69
75298;BME280;63896;45.990;18.688;2024-03-23T11:09:41;99957.91;;;31.95;22.77
75298;BME280;63896;45.990;18.688;2024-03-23T11:12:46;99959.56;;;28.53;27.53
75298;BME280;63896;45.990;18.688;2024-03-23T11:15:48;99942.31;;;29.60;25.50
75298;BME280;63896;45.990;18.688;2024-03-23T11:18:50;99944.56;;;31.71;23.86
75298;BME280;63896;45.990;18.688;2024-03-23T11:21:53;99927.78;;;31.99;22.81
75298;BME280;63896;45.990;18.688;2024-03-23T11:24:55;99924.16;;;32.70;22.48
75298;BME280;63896;45.990;18.688;2024-03-23T11:28:11;99918.13;;;32.61;22.34
75298;BME280;63896;45.990;18.688;2024-03-23T11:31:14;99896.31;;;28.91;26.11
75298;BME280;63896;45.990;18.688;2024-03-23T11:34:16;99909.09;;;27.86;27.58
75298;BME280;63896;45.990;18.688;2024-03-23T11:37:18;99901.81;;;26.47;29.79
75298;BME280;63896;45.990;18.688;2024-03-23T11:40:21;99894.19;;;26.61;29.95
75298;BME280;63896;45.990;18.688;2024-03-23T11:43:23;99882.16;;;26.83;29.99
75298;BME280;63896;45.990;18.688;2024-03-23T11:46:26;99877.19;;;27.75;28.51
75298;BME280;63896;45.990;18.688;2024-03-23T11:49:29;99868.13;;;27.26;28.77
75298;BME280;63896;45.990;18.688;2024-03-23T11:52:31;99868.19;;;27.50;29.43
75298;BME280;63896;45.990;18.688;2024-03-23T11:58:42;99853.03;;;26.42;29.77
75298;BME280;63896;45.990;18.688;2024-03-23T12:01:45;99849.56;;;24.98;31.93
75298;BME280;63896;45.990;18.688;2024-03-23T12:04:46;99847.03;;;24.67;32.62
75298;BME280;63896;45.990;18.688;2024-03-23T12:07:48;99836.56;;;26.80;29.03
75298;BME280;63896;45.990;18.688;2024-03-23T12:10:52;99817.03;;;30.74;24.58
75298;BME280;63896;45.990;18.688;2024-03-23T12:13:59;99806.50;;;31.90;23.80
75298;BME280;63896;45.990;18.688;2024-03-23T12:20:31;99793.31;;;28.92;26.07
75298;BME280;63896;45.990;18.688;2024-03-23T12:23:33;99780.53;;;30.47;25.28
75298;BME280;63896;45.990;18.688;2024-03-23T12:26:35;99787.41;;;31.48;22.85
75298;BME280;63896;45.990;18.688;2024-03-23T12:29:39;99779.72;;;31.31;23.78
75298;BME280;63896;45.990;18.688;2024-03-23T12:32:40;99777.13;;;31.41;22.99
75298;BME280;63896;45.990;18.688;2024-03-23T12:35:42;99764.59;;;32.59;21.14
75298;BME280;63896;45.990;18.688;2024-03-23T12:38:44;99758.41;;;32.63;21.70
75298;BME280;63896;45.990;18.688;2024-03-23T12:41:46;99752.09;;;33.02;21.53
75298;BME280;63896;45.990;18.688;2024-03-23T12:44:48;99755.28;;;32.68;21.19
75298;BME280;63896;45.990;18.688;2024-03-23T12:47:50;99748.31;;;33.18;20.80
75298;BME280;63896;45.990;18.688;2024-03-23T12:50:54;99732.31;;;32.13;21.56
75298;BME280;63896;45.990;18.688;2024-03-23T12:53:56;99733.13;;;32.90;20.38
75298;BME280;63896;45.990;18.688;2024-03-23T12:56:58;99723.09;;;33.09;20.36
75298;BME280;63896;45.990;18.688;2024-03-23T13:00:00;99719.00;;;34.12;19.71
75298;BME280;63896;45.990;18.688;2024-03-23T13:03:02;99713.66;;;32.29;21.15
75298;BME280;63896;45.990;18.688;2024-03-23T13:06:06;99705.91;;;33.87;19.51
75298;BME280;63896;45.990;18.688;2024-03-23T13:09:09;99702.88;;;29.98;23.71
75298;BME280;63896;45.990;18.688;2024-03-23T13:12:11;99701.25;;;29.77;23.39
75298;BME280;63896;45.990;18.688;2024-03-23T13:15:16;99692.72;;;29.44;24.09
75298;BME280;63896;45.990;18.688;2024-03-23T13:18:19;99687.03;;;28.27;25.87
75298;BME280;63896;45.990;18.688;2024-03-23T13:21:21;99685.31;;;26.70;27.90
75298;BME280;63896;45.990;18.688;2024-03-23T13:24:23;99683.78;;;26.36;27.59
75298;BME280;63896;45.990;18.688;2024-03-23T13:27:25;99678.66;;;26.35;27.46
75298;BME280;63896;45.990;18.688;2024-03-23T13:30:27;99688.94;;;25.55;27.80
75298;BME280;63896;45.990;18.688;2024-03-23T13:33:30;99681.00;;;25.12;28.00
75298;BME280;63896;45.990;18.688;2024-03-23T13:36:33;99677.84;;;25.10;28.52
75298;BME280;63896;45.990;18.688;2024-03-23T13:39:35;99665.94;;;24.94;28.69
75298;BME280;63896;45.990;18.688;2024-03-23T13:42:37;99679.28;;;24.61;29.79
75298;BME280;63896;45.990;18.688;2024-03-23T13:45:39;99668.84;;;23.91;29.79
75298;BME280;63896;45.990;18.688;2024-03-23T13:48:40;99674.28;;;23.73;30.52
75298;BME280;63896;45.990;18.688;2024-03-23T13:51:46;99670.75;;;23.47;30.68
75298;BME280;63896;45.990;18.688;2024-03-23T13:54:48;99667.00;;;23.17;30.95
75298;BME280;63896;45.990;18.688;2024-03-23T13:57:50;99661.69;;;22.64;32.07
75298;BME280;63896;45.990;18.688;2024-03-23T14:00:52;99660.25;;;22.58;32.41
75298;BME280;63896;45.990;18.688;2024-03-23T14:03:55;99660.66;;;22.52;31.88
75298;BME280;63896;45.990;18.688;2024-03-23T14:06:57;99650.00;;;22.47;32.31
75298;BME280;63896;45.990;18.688;2024-03-23T14:10:05;99648.28;;;22.90;32.25
75298;BME280;63896;45.990;18.688;2024-03-23T14:13:12;99651.06;;;22.37;33.10
75298;BME280;63896;45.990;18.688;2024-03-23T14:16:13;99647.88;;;22.35;33.53
75298;BME280;63896;45.990;18.688;2024-03-23T14:19:15;99648.91;;;22.56;33.11
75298;BME280;63896;45.990;18.688;2024-03-23T14:22:17;99635.50;;;22.43;33.64
75298;BME280;63896;45.990;18.688;2024-03-23T14:25:24;99633.31;;;22.22;33.60
75298;BME280;63896;45.990;18.688;2024-03-23T14:28:29;99634.25;;;22.18;33.25
75298;BME280;63896;45.990;18.688;2024-03-23T14:31:30;99632.56;;;22.00;33.76
75298;BME280;63896;45.990;18.688;2024-03-23T14:34:32;99635.88;;;21.97;33.32
75298;BME280;63896;45.990;18.688;2024-03-23T14:37:34;99622.03;;;21.98;33.57
75298;BME280;63896;45.990;18.688;2024-03-23T14:40:36;99621.28;;;21.84;33.95
75298;BME280;63896;45.990;18.688;2024-03-23T14:43:38;99615.09;;;21.83;33.94
75298;BME280;63896;45.990;18.688;2024-03-23T14:46:40;99611.69;;;21.78;34.24
75298;BME280;63896;45.990;18.688;2024-03-23T14:49:41;99611.84;;;21.73;34.47
75298;BME280;63896;45.990;18.688;2024-03-23T14:52:46;99606.72;;;21.49;34.99
75298;BME280;63896;45.990;18.688;2024-03-23T14:55:48;99600.97;;;21.28;34.47
75298;BME280;63896;45.990;18.688;2024-03-23T14:58:56;99606.38;;;21.28;34.39
75298;BME280;63896;45.990;18.688;2024-03-23T15:01:58;99595.19;;;21.08;34.91
75298;BME280;63896;45.990;18.688;2024-03-23T15:05:01;99589.41;;;21.14;34.81
75298;BME280;63896;45.990;18.688;2024-03-23T15:08:05;99591.91;;;20.97;34.87
75298;BME280;63896;45.990;18.688;2024-03-23T15:11:07;99597.91;;;20.94;35.21
75298;BME280;63896;45.990;18.688;2024-03-23T15:14:09;99586.81;;;20.82;35.44
75298;BME280;63896;45.990;18.688;2024-03-23T15:17:12;99588.53;;;20.64;36.04
75298;BME280;63896;45.990;18.688;2024-03-23T15:20:14;99587.75;;;20.64;35.84
75298;BME280;63896;45.990;18.688;2024-03-23T15:23:15;99583.66;;;20.53;36.13
75298;BME280;63896;45.990;18.688;2024-03-23T15:26:17;99592.13;;;20.46;36.67
75298;BME280;63896;45.990;18.688;2024-03-23T15:29:20;99588.97;;;20.25;36.74
75298;BME280;63896;45.990;18.688;2024-03-23T15:32:23;99590.38;;;20.23;36.61
75298;BME280;63896;45.990;18.688;2024-03-23T15:35:25;99581.97;;;20.24;36.39
75298;BME280;63896;45.990;18.688;2024-03-23T15:38:27;99586.75;;;20.14;36.41
75298;BME280;63896;45.990;18.688;2024-03-23T15:41:30;99582.97;;;20.15;37.33
75298;BME280;63896;45.990;18.688;2024-03-23T15:44:32;99587.84;;;20.13;36.41
75298;BME280;63896;45.990;18.688;2024-03-23T15:47:35;99588.06;;;20.16;36.21
75298;BME280;63896;45.990;18.688;2024-03-23T15:50:37;99594.66;;;20.24;36.41
75298;BME280;63896;45.990;18.688;2024-03-23T15:53:38;99581.66;;;20.12;37.23
75298;BME280;63896;45.990;18.688;2024-03-23T15:56:40;99578.97;;;20.12;36.83
75298;BME280;63896;45.990;18.688;2024-03-23T15:59:42;99586.69;;;20.19;36.64
75298;BME280;63896;45.990;18.688;2024-03-23T16:02:44;99580.28;;;20.15;37.50
75298;BME280;63896;45.990;18.688;2024-03-23T16:05:55;99581.44;;;20.09;37.87
75298;BME280;63896;45.990;18.688;2024-03-23T16:08:57;99584.34;;;19.98;38.49
75298;BME280;63896;45.990;18.688;2024-03-23T16:11:58;99578.91;;;19.85;38.62
75298;BME280;63896;45.990;18.688;2024-03-23T16:15:00;99579.50;;;19.82;38.86
75298;BME280;63896;45.990;18.688;2024-03-23T16:18:02;99583.38;;;19.76;39.37
75298;BME280;63896;45.990;18.688;2024-03-23T16:21:05;99582.63;;;19.70;39.29
75298;BME280;63896;45.990;18.688;2024-03-23T16:24:07;99588.19;;;19.60;39.47
75298;BME280;63896;45.990;18.688;2024-03-23T16:27:09;99579.47;;;19.49;40.11
75298;BME280;63896;45.990;18.688;2024-03-23T16:30:11;99578.00;;;19.38;40.33
75298;BME280;63896;45.990;18.688;2024-03-23T16:33:13;99574.44;;;19.24;41.20
75298;BME280;63896;45.990;18.688;2024-03-23T16:36:15;99568.13;;;19.15;40.85
75298;BME280;63896;45.990;18.688;2024-03-23T16:39:18;99584.91;;;19.07;41.77
75298;BME280;63896;45.990;18.688;2024-03-23T16:42:20;99581.03;;;18.94;41.25
75298;BME280;63896;45.990;18.688;2024-03-23T16:45:23;99582.53;;;18.82;41.83